Time;durP1;ratioP1;P1;durP2;ratioP2;P2;SDS_P1;SDS_P2;PMS_P1;PMS_P2;Temp;Humidity;BMP_temperature;BMP_pressure;BME280_temperature;BME280_humidity;BME280_pressure;Samples;Min_cycle;Max_cycle;Signal;HPM_P1;HPM_P2
2024/02/27 00:01:35;;;;;;;;;;;7.00;99.90;;;;;;6740777;88;20086;-79
2024/02/27 00:11:36;;;;;;;;;;;7.00;99.90;;;;;;6735972;88;20118;-79
2024/02/27 00:21:36;;;;;;;;;;;7.00;99.90;;;;;;6735259;88;20078;-78
2024/02/27 00:31:37;;;;;;;;;;;7.00;99.90;;;;;;6734990;88;20066;-79
2024/02/27 00:41:41;;;;;;;;;;;7.00;99.90;;;;;;6735807;88;20050;-80
2024/02/27 00:51:41;;;;;;;;;;;6.90;99.90;;;;;;6739812;88;20113;-79
2024/02/27 01:01:42;;;;;;;;;;;6.90;99.90;;;;;;6737987;88;20050;-79
2024/02/27 01:11:42;;;;;;;;;;;6.90;99.90;;;;;;6738944;88;20753;-79
2024/02/27 01:21:43;;;;;;;;;;;6.90;99.90;;;;;;6739428;88;20062;-78
2024/02/27 01:31:44;;;;;;;;;;;6.90;99.90;;;;;;6737180;88;20075;-78
2024/02/27 01:41:47;;;;;;;;;;;6.90;99.90;;;;;;6742757;88;20086;-78
2024/02/27 02:01:52;;;;;;;;;;;6.90;99.90;;;;;;6739768;88;20088;-77
2024/02/27 02:11:52;;;;;;;;;;;6.80;99.90;;;;;;6748566;88;20094;-78
2024/02/27 02:21:56;;;;;;;;;;;6.90;99.90;;;;;;6745695;88;20175;-78
2024/02/27 02:31:57;;;;;;;;;;;6.90;99.90;;;;;;6741236;88;20080;-78
2024/02/27 02:41:57;;;;;;;;;;;6.80;99.90;;;;;;6763416;88;20070;-78
2024/02/27 02:51:58;;;;;;;;;;;6.90;99.90;;;;;;6758066;87;20144;-77
2024/02/27 03:01:58;;;;;;;;;;;6.90;99.90;;;;;;6747630;88;20088;-78
2024/02/27 03:11:59;;;;;;;;;;;6.90;99.90;;;;;;6740560;88;20081;-78
2024/02/27 03:22:00;;;;;;;;;;;6.80;99.90;;;;;;6745981;88;20072;-78
2024/02/27 03:32:00;;;;;;;;;;;6.70;99.90;;;;;;6746540;88;20169;-78
2024/02/27 03:42:01;;;;;;;;;;;6.60;99.90;;;;;;6746758;88;20122;-78
2024/02/27 03:52:01;;;;;;;;;;;6.60;99.90;;;;;;6744292;87;20086;-77
2024/02/27 04:02:02;;;;;;;;;;;6.60;99.90;;;;;;6746496;88;20080;-78
2024/02/27 04:12:02;;;;;;;;;;;6.50;99.90;;;;;;6741592;88;20092;-77
2024/02/27 04:22:03;;;;;;;;;;;6.60;99.90;;;;;;6748837;88;20053;-78
2024/02/27 04:32:03;;;;;;;;;;;6.50;99.90;;;;;;6751054;88;20088;-77
2024/02/27 04:42:04;;;;;;;;;;;6.40;99.90;;;;;;6748275;87;20097;-77
2024/02/27 04:52:05;;;;;;;;;;;6.40;99.90;;;;;;6746401;87;20062;-77
2024/02/27 05:02:05;;;;;;;;;;;6.30;99.90;;;;;;6748896;88;20072;-78
2024/02/27 05:12:06;;;;;;;;;;;6.30;99.90;;;;;;6744527;88;20145;-78
2024/02/27 05:22:06;;;;;;;;;;;6.30;99.90;;;;;;6749668;88;20080;-78
2024/02/27 05:32:08;;;;;;;;;;;6.30;99.90;;;;;;6742394;88;20067;-78
2024/02/27 05:42:08;;;;;;;;;;;6.20;99.90;;;;;;6746651;88;20086;-78
2024/02/27 05:52:08;;;;;;;;;;;6.20;99.90;;;;;;6749923;87;20077;-78
2024/02/27 06:02:10;;;;;;;;;;;6.00;99.90;;;;;;6747669;88;20098;-77
2024/02/27 06:12:10;;;;;;;;;;;5.90;99.90;;;;;;6743508;88;20177;-78
2024/02/27 06:22:11;;;;;;;;;;;5.70;99.90;;;;;;6752595;88;20219;-80
2024/02/27 06:32:12;;;;;;;;;;;5.60;99.90;;;;;;6745640;88;20073;-79
2024/02/27 06:42:12;;;;;;;;;;;5.50;99.90;;;;;;6747139;88;20742;-79
2024/02/27 06:52:13;;;;;;;;;;;5.50;99.90;;;;;;6753654;87;20127;-79
2024/02/27 07:02:13;;;;;;;;;;;5.40;99.90;;;;;;6748806;88;20565;-79
2024/02/27 07:12:14;;;;;;;;;;;5.50;99.90;;;;;;6750603;88;20061;-80
2024/02/27 07:22:14;;;;;;;;;;;5.60;99.90;;;;;;6760611;88;20054;-80
2024/02/27 07:32:16;;;;;;;;;;;5.80;99.90;;;;;;6752334;88;20066;-80
2024/02/27 07:42:16;;;;;;;;;;;6.00;99.90;;;;;;6760476;88;20074;-79
2024/02/27 08:02:21;;;;;;;;;;;6.40;99.90;;;;;;6735391;88;20114;-78
2024/02/27 08:12:22;;;;;;;;;;;6.80;99.90;;;;;;6720528;88;20051;-78
2024/02/27 08:22:23;;;;;;;;;;;7.10;99.90;;;;;;6723174;88;20071;-79
2024/02/27 08:32:24;;;;;;;;;;;7.80;99.90;;;;;;6724198;88;20547;-79
2024/02/27 08:42:24;;;;;;;;;;;7.80;99.90;;;;;;6728167;88;20054;-79
2024/02/27 08:52:25;;;;;;;;;;;7.60;99.90;;;;;;6726258;88;20196;-79
2024/02/27 09:02:26;;;;;;;;;;;7.70;99.90;;;;;;6731364;88;20608;-77
2024/02/27 09:12:27;;;;;;;;;;;8.50;99.90;;;;;;6730707;88;20204;-77
2024/02/27 09:22:27;;;;;;;;;;;9.00;99.90;;;;;;6725620;88;20063;-79
2024/02/27 09:32:28;;;;;;;;;;;9.80;99.90;;;;;;6723175;88;20138;-78
2024/02/27 09:42:30;;;;;;;;;;;10.00;99.90;;;;;;6723169;88;20055;-79
2024/02/27 09:52:33;;;;;;;;;;;10.20;99.90;;;;;;6727254;88;20694;-79
2024/02/27 10:02:33;;;;;;;;;;;11.20;99.90;;;;;;6729706;88;20059;-80
2024/02/27 10:12:34;;;;;;;;;;;11.40;99.90;;;;;;6726490;88;20089;-80
2024/02/27 10:22:34;;;;;;;;;;;12.00;99.90;;;;;;6723633;88;20095;-80
2024/02/27 10:32:35;;;;;;;;;;;12.10;99.90;;;;;;6724822;88;20059;-78
2024/02/27 10:42:37;;;;;;;;;;;12.00;99.90;;;;;;6726427;88;20143;-80
2024/02/27 10:52:37;;;;;;;;;;;12.70;99.90;;;;;;6725601;88;20133;-79
2024/02/27 11:02:40;;;;;;;;;;;12.70;99.90;;;;;;6726368;88;20079;-78
2024/02/27 11:12:43;;;;;;;;;;;14.10;99.90;;;;;;6728592;88;20103;-79
2024/02/27 11:22:43;;;;;;;;;;;15.20;99.90;;;;;;6731448;88;20109;-80
2024/02/27 11:32:44;;;;;;;;;;;15.10;99.90;;;;;;6730676;88;20067;-80
2024/02/27 11:42:45;;;;;;;;;;;14.90;99.90;;;;;;6730146;88;20075;-79
2024/02/27 11:52:45;;;;;;;;;;;15.10;99.90;;;;;;6728182;88;20525;-79
2024/02/27 12:02:47;;;;;;;;;;;13.50;99.90;;;;;;6720674;88;20117;-79
2024/02/27 12:12:47;;;;;;;;;;;12.90;99.90;;;;;;6726837;88;20203;-79
2024/02/27 12:22:50;;;;;;;;;;;12.30;99.90;;;;;;6724997;88;20095;-81
2024/02/27 12:32:51;;;;;;;;;;;12.80;99.90;;;;;;6727082;88;20121;-80
2024/02/27 12:42:54;;;;;;;;;;;13.70;99.90;;;;;;6727665;88;20090;-81
2024/02/27 12:52:58;;;;;;;;;;;14.50;99.90;;;;;;6730856;88;20108;-80
2024/02/27 13:02:58;;;;;;;;;;;13.90;99.90;;;;;;6723609;88;20109;-79
2024/02/27 13:13:18;;;;;;;;;;;12.70;99.90;;;;;;6724980;88;20050;-78
2024/02/27 13:23:19;;;;;;;;;;;12.90;99.90;;;;;;6722280;88;20507;-78
2024/02/27 13:33:19;;;;;;;;;;;11.40;99.90;;;;;;6721671;88;20080;-79
2024/02/27 13:43:20;;;;;;;;;;;11.40;99.90;;;;;;6722979;88;20068;-78
2024/02/27 14:03:24;;;;;;;;;;;11.60;99.90;;;;;;6740937;88;20604;-80
2024/02/27 14:13:24;;;;;;;;;;;12.80;99.90;;;;;;6749026;88;20045;-80
2024/02/27 14:23:25;;;;;;;;;;;13.50;99.90;;;;;;6754442;88;20483;-80
2024/02/27 14:33:25;;;;;;;;;;;13.30;99.90;;;;;;6765672;88;20049;-78
2024/02/27 14:43:26;;;;;;;;;;;13.10;99.90;;;;;;6753414;88;20050;-78
2024/02/27 14:53:26;;;;;;;;;;;13.00;99.90;;;;;;6754055;87;20189;-78
2024/02/27 15:03:26;;;;;;;;;;;12.60;99.90;;;;;;6755341;88;20140;-78
2024/02/27 15:13:27;;;;;;;;;;;12.60;99.90;;;;;;6752512;88;20061;-78
2024/02/27 15:23:27;;;;;;;;;;;12.40;99.90;;;;;;6749775;88;20063;-78
2024/02/27 15:33:28;;;;;;;;;;;11.70;99.90;;;;;;6750776;88;20066;-79
2024/02/27 15:43:28;;;;;;;;;;;11.30;99.90;;;;;;6744864;88;20513;-78
2024/02/27 15:53:29;;;;;;;;;;;10.80;99.90;;;;;;6747701;88;20062;-80
2024/02/27 16:03:56;;;;;;;;;;;10.00;99.90;;;;;;6749159;88;20057;-80
2024/02/27 16:13:57;;;;;;;;;;;9.60;99.90;;;;;;6764639;87;20094;-80
2024/02/27 16:23:57;;;;;;;;;;;9.10;99.90;;;;;;6765736;88;20131;-81
2024/02/27 16:33:58;;;;;;;;;;;8.80;99.90;;;;;;6767192;88;20126;-80
2024/02/27 16:43:59;;;;;;;;;;;8.50;99.90;;;;;;6764591;87;20060;-80
2024/02/27 16:53:59;;;;;;;;;;;8.30;99.90;;;;;;6762997;87;20171;-80
2024/02/27 17:04:00;;;;;;;;;;;7.90;99.90;;;;;;6763961;88;20569;-81
2024/02/27 17:14:01;;;;;;;;;;;7.60;99.90;;;;;;6762222;87;20068;-80
2024/02/27 17:24:01;;;;;;;;;;;7.30;99.90;;;;;;6763938;88;20074;-80
2024/02/27 17:34:01;;;;;;;;;;;7.00;99.90;;;;;;6764049;88;20074;-80
2024/02/27 17:44:02;;;;;;;;;;;6.90;99.90;;;;;;6760612;88;20061;-80
2024/02/27 17:54:02;;;;;;;;;;;6.80;99.90;;;;;;6749903;88;20073;-78
2024/02/27 18:04:05;;;;;;;;;;;6.40;99.90;;;;;;6756502;88;20049;-80
2024/02/27 18:14:05;;;;;;;;;;;6.20;99.90;;;;;;6758355;88;20053;-80
2024/02/27 18:24:06;;;;;;;;;;;6.00;99.90;;;;;;6756045;88;20075;-80
2024/02/27 18:34:06;;;;;;;;;;;5.70;99.90;;;;;;6746123;88;20062;-80
2024/02/27 18:44:07;;;;;;;;;;;5.60;99.90;;;;;;6750888;88;20193;-80
2024/02/27 18:54:07;;;;;;;;;;;5.40;99.90;;;;;;6754997;88;20108;-79
2024/02/27 19:04:08;;;;;;;;;;;5.40;99.90;;;;;;6757813;88;20075;-80
2024/02/27 19:14:08;;;;;;;;;;;5.20;99.90;;;;;;6757902;88;20593;-79
2024/02/27 19:24:09;;;;;;;;;;;5.10;99.90;;;;;;6758232;88;20068;-80
2024/02/27 19:34:09;;;;;;;;;;;5.00;99.90;;;;;;6762662;88;20059;-80
2024/02/27 19:44:10;;;;;;;;;;;4.90;99.90;;;;;;6760975;88;20174;-79
2024/02/27 20:04:17;;;;;;;;;;;4.70;99.90;;;;;;6724506;88;20533;-78
2024/02/27 20:14:17;;;;;;;;;;;4.50;99.90;;;;;;6724522;88;20127;-79
2024/02/27 20:24:18;;;;;;;;;;;4.50;99.90;;;;;;6725477;88;20189;-78
2024/02/27 20:34:20;;;;;;;;;;;4.30;99.90;;;;;;6721274;88;20055;-79
2024/02/27 20:44:21;;;;;;;;;;;4.20;99.90;;;;;;6723492;88;20089;-79
2024/02/27 20:54:21;;;;;;;;;;;4.20;99.90;;;;;;6722742;88;20560;-78
2024/02/27 21:04:22;;;;;;;;;;;4.20;99.90;;;;;;6718094;88;20204;-79
2024/02/27 21:14:22;;;;;;;;;;;4.00;99.90;;;;;;6719273;88;20523;-78
2024/02/27 21:24:23;;;;;;;;;;;3.90;99.90;;;;;;6720087;88;20049;-78
2024/02/27 21:34:23;;;;;;;;;;;3.80;99.90;;;;;;6720854;88;20107;-79
2024/02/27 21:44:24;;;;;;;;;;;3.80;99.90;;;;;;6721370;88;20196;-76
2024/02/27 21:54:24;;;;;;;;;;;3.60;99.90;;;;;;6719756;88;20101;-78
2024/02/27 22:04:25;;;;;;;;;;;3.60;99.90;;;;;;6720637;88;20111;-78
2024/02/27 22:14:25;;;;;;;;;;;3.60;99.90;;;;;;6721951;88;20108;-78
2024/02/27 22:24:26;;;;;;;;;;;3.60;99.90;;;;;;6721217;88;20183;-77
2024/02/27 22:34:26;;;;;;;;;;;3.60;99.90;;;;;;6724607;88;20111;-78
2024/02/27 22:44:27;;;;;;;;;;;3.80;99.90;;;;;;6723674;88;20536;-78
2024/02/27 22:54:27;;;;;;;;;;;3.80;99.90;;;;;;6722476;88;20173;-77
2024/02/27 23:04:28;;;;;;;;;;;4.00;99.90;;;;;;6721392;88;20594;-78
2024/02/27 23:14:28;;;;;;;;;;;4.10;99.90;;;;;;6719119;88;20054;-78
2024/02/27 23:24:29;;;;;;;;;;;4.20;99.90;;;;;;6718769;88;20051;-78
2024/02/27 23:34:29;;;;;;;;;;;4.10;99.90;;;;;;6722320;88;20121;-77
2024/02/27 23:44:30;;;;;;;;;;;4.10;99.90;;;;;;6722641;88;20485;-78
2024/02/27 23:54:30;;;;;;;;;;;4.30;99.90;;;;;;6722885;88;20194;-78
